createdAt,value
2018-03-14T00:00:21.741Z,1015.34
2018-03-14T00:01:19.942Z,1015.33
2018-03-14T00:02:19.906Z,1015.35
2018-03-14T00:03:20.223Z,1015.36
2018-03-14T00:04:19.949Z,1015.38
2018-03-14T00:05:19.948Z,1015.37
2018-03-14T00:06:19.956Z,1015.4
2018-03-14T00:07:19.923Z,1015.41
2018-03-14T00:08:21.802Z,1015.42
2018-03-14T00:09:19.903Z,1015.46
2018-03-14T00:10:19.959Z,1015.45
2018-03-14T00:11:19.920Z,1015.44
2018-03-14T00:12:19.939Z,1015.44
2018-03-14T00:13:19.934Z,1015.47
2018-03-14T00:14:19.954Z,1015.5
2018-03-14T00:15:19.936Z,1015.51
2018-03-14T00:16:21.824Z,1015.54
2018-03-14T00:17:19.942Z,1015.57
2018-03-14T00:18:19.919Z,1015.58
2018-03-14T00:19:20.187Z,1015.56
2018-03-14T00:20:19.943Z,1015.54
2018-03-14T00:21:19.936Z,1015.61
2018-03-14T00:22:19.933Z,1015.56
2018-03-14T00:23:20.516Z,1015.61
2018-03-14T00:24:19.930Z,1015.6
2018-03-14T00:25:19.921Z,1015.61
2018-03-14T00:26:19.977Z,1015.63
2018-03-14T00:27:19.946Z,1015.63
2018-03-14T00:28:19.928Z,1015.66
2018-03-14T00:29:20.274Z,1015.66
2018-03-14T00:30:19.908Z,1015.66
2018-03-14T00:31:21.003Z,1015.66
2018-03-14T00:32:19.963Z,1015.63
2018-03-14T00:33:19.965Z,1015.68
2018-03-14T00:34:19.920Z,1015.68
2018-03-14T00:35:19.950Z,1015.7
2018-03-14T00:36:19.926Z,1015.66
2018-03-14T00:37:19.942Z,1015.71
2018-03-14T00:38:19.923Z,1015.72
2018-03-14T00:39:21.127Z,1015.7
2018-03-14T00:40:19.944Z,1015.73
2018-03-14T00:41:19.913Z,1015.72
2018-03-14T00:42:19.938Z,1015.74
2018-03-14T00:43:19.968Z,1015.77
2018-03-14T00:44:19.920Z,1015.75
2018-03-14T00:45:20.257Z,1015.77
2018-03-14T00:46:19.927Z,1015.76
2018-03-14T00:47:21.525Z,1015.74
2018-03-14T00:48:19.945Z,1015.78
2018-03-14T00:49:19.921Z,1015.79
2018-03-14T00:50:19.915Z,1015.75
2018-03-14T00:51:19.934Z,1015.8
2018-03-14T00:52:19.939Z,1015.78
2018-03-14T00:53:19.901Z,1015.79
2018-03-14T00:54:19.929Z,1015.81
2018-03-14T00:55:21.493Z,1015.8
2018-03-14T00:56:19.960Z,1015.81
2018-03-14T00:57:19.933Z,1015.85
2018-03-14T00:58:19.911Z,1015.8
2018-03-14T00:59:19.925Z,1015.8
2018-03-14T01:00:19.940Z,1015.78
2018-03-14T01:01:20.221Z,1015.83
2018-03-14T01:02:19.938Z,1015.83
2018-03-14T01:03:19.994Z,1015.8
2018-03-14T01:04:19.928Z,1015.83
2018-03-14T01:05:19.897Z,1015.84
2018-03-14T01:06:19.940Z,1015.82
2018-03-14T01:07:19.889Z,1015.82
2018-03-14T01:08:19.966Z,1015.85
2018-03-14T01:09:19.944Z,1015.84
2018-03-14T01:10:21.192Z,1015.86
2018-03-14T01:11:19.922Z,1015.87
2018-03-14T01:12:19.918Z,1015.91
2018-03-14T01:13:19.912Z,1015.9
2018-03-14T01:14:19.966Z,1015.9
2018-03-14T01:15:19.956Z,1015.93
2018-03-14T01:16:19.964Z,1015.89
2018-03-14T01:17:20.208Z,1015.89
2018-03-14T01:18:21.660Z,1015.91
2018-03-14T01:19:19.939Z,1015.92
2018-03-14T01:20:19.919Z,1015.93
2018-03-14T01:21:20.196Z,1015.9
2018-03-14T01:22:20.309Z,1015.9
2018-03-14T01:23:19.970Z,1015.92
2018-03-14T01:24:19.909Z,1015.88
2018-03-14T01:25:19.926Z,1015.9
2018-03-14T01:26:21.748Z,1015.88
2018-03-14T01:27:19.941Z,1015.88
2018-03-14T01:28:19.919Z,1015.86
2018-03-14T01:29:19.963Z,1015.88
2018-03-14T01:30:19.896Z,1015.86
2018-03-14T01:31:19.905Z,1015.88
2018-03-14T01:32:19.887Z,1015.85
2018-03-14T01:33:19.898Z,1015.88
2018-03-14T01:34:20.214Z,1015.84
2018-03-14T01:35:19.905Z,1015.88
2018-03-14T01:36:19.951Z,1015.88
2018-03-14T01:37:19.930Z,1015.89
2018-03-14T01:38:19.973Z,1015.87
2018-03-14T01:39:19.957Z,1015.88
2018-03-14T01:40:19.925Z,1015.87
2018-03-14T01:41:20.490Z,1015.87
2018-03-14T01:42:19.905Z,1015.9
2018-03-14T01:43:19.900Z,1015.9
2018-03-14T01:44:19.909Z,1015.86
2018-03-14T01:45:19.917Z,1015.91
2018-03-14T01:46:19.908Z,1015.9
2018-03-14T01:47:19.918Z,1015.84
2018-03-14T01:48:19.921Z,1015.85
2018-03-14T01:49:21.363Z,1015.87
2018-03-14T01:50:19.979Z,1015.88
2018-03-14T01:51:19.896Z,1015.86
2018-03-14T01:52:19.914Z,1015.83
2018-03-14T01:53:19.935Z,1015.85
2018-03-14T01:54:19.944Z,1015.85
2018-03-14T01:55:19.930Z,1015.84
2018-03-14T01:56:19.923Z,1015.86
2018-03-14T01:57:19.909Z,1015.83
2018-03-14T01:58:19.911Z,1015.84
2018-03-14T01:59:19.896Z,1015.81
2018-03-14T02:00:19.935Z,1015.81
2018-03-14T02:01:19.916Z,1015.76
2018-03-14T02:02:19.909Z,1015.8
2018-03-14T02:03:19.879Z,1015.84
2018-03-14T02:04:20.627Z,1015.79
2018-03-14T02:05:19.910Z,1015.82
2018-03-14T02:06:19.890Z,1015.78
2018-03-14T02:07:19.896Z,1015.79
2018-03-14T02:08:19.931Z,1015.8
2018-03-14T02:09:19.899Z,1015.8
2018-03-14T02:10:19.926Z,1015.8
2018-03-14T02:11:19.876Z,1015.82
2018-03-14T02:12:21.124Z,1015.83
2018-03-14T02:13:19.899Z,1015.81
2018-03-14T02:14:19.926Z,1015.86
2018-03-14T02:15:20.154Z,1015.81
2018-03-14T02:16:19.903Z,1015.83
2018-03-14T02:17:19.891Z,1015.82
2018-03-14T02:18:19.881Z,1015.87
2018-03-14T02:19:19.906Z,1015.83
2018-03-14T02:20:21.904Z,1015.86
2018-03-14T02:21:19.898Z,1015.83
2018-03-14T02:22:19.956Z,1015.87
2018-03-14T02:23:19.913Z,1015.81
2018-03-14T02:24:19.911Z,1015.9
2018-03-14T02:25:19.949Z,1015.85
2018-03-14T02:26:19.929Z,1015.81
2018-03-14T02:27:19.916Z,1015.86
2018-03-14T02:28:19.907Z,1015.84
2018-03-14T02:29:19.898Z,1015.82
2018-03-14T02:30:19.926Z,1015.87
2018-03-14T02:31:19.897Z,1015.86
2018-03-14T02:32:19.927Z,1015.85
2018-03-14T02:33:19.873Z,1015.87
2018-03-14T02:34:19.887Z,1015.89
2018-03-14T02:35:21.271Z,1015.86
2018-03-14T02:36:19.903Z,1015.85
2018-03-14T02:37:19.911Z,1015.88
2018-03-14T02:38:19.913Z,1015.87
2018-03-14T02:39:19.875Z,1015.88
2018-03-14T02:40:19.878Z,1015.88
2018-03-14T02:41:20.158Z,1015.88
2018-03-14T02:42:19.897Z,1015.88
2018-03-14T02:43:21.752Z,1015.89
2018-03-14T02:44:19.872Z,1015.88
2018-03-14T02:45:19.881Z,1015.84
2018-03-14T02:46:19.877Z,1015.87
2018-03-14T02:47:19.872Z,1015.9
2018-03-14T02:48:19.867Z,1015.92
2018-03-14T02:49:19.855Z,1015.88
2018-03-14T02:50:19.850Z,1015.87
2018-03-14T02:51:19.846Z,1015.92
2018-03-14T02:52:19.869Z,1015.88
2018-03-14T02:53:20.111Z,1015.91
2018-03-14T02:54:19.830Z,1015.93
2018-03-14T02:55:19.850Z,1015.9
2018-03-14T02:56:19.850Z,1015.88
2018-03-14T02:57:19.843Z,1015.94
2018-03-14T02:58:19.876Z,1015.94
2018-03-14T02:59:19.837Z,1015.95
2018-03-14T03:00:19.843Z,1015.93
2018-03-14T03:01:19.853Z,1015.94
2018-03-14T03:02:19.845Z,1015.9
2018-03-14T03:03:19.829Z,1015.91
2018-03-14T03:04:19.877Z,1015.91
2018-03-14T03:05:19.827Z,1015.89
2018-03-14T03:06:19.828Z,1015.87
2018-03-14T03:07:19.859Z,1015.9
2018-03-14T03:08:19.840Z,1015.85
2018-03-14T03:09:19.854Z,1015.86
2018-03-14T03:10:19.833Z,1015.87
2018-03-14T03:11:19.862Z,1015.9
2018-03-14T03:12:19.864Z,1015.91
2018-03-14T03:13:19.833Z,1015.88
2018-03-14T03:14:19.884Z,1015.9
2018-03-14T03:15:19.836Z,1015.91
2018-03-14T03:16:19.833Z,1015.96
2018-03-14T03:17:19.863Z,1015.97
2018-03-14T03:18:19.837Z,1015.93
2018-03-14T03:19:19.877Z,1015.93
2018-03-14T03:20:19.826Z,1015.9
2018-03-14T03:21:19.838Z,1015.93
2018-03-14T03:22:19.945Z,1015.97
2018-03-14T03:23:19.926Z,1015.96
2018-03-14T03:24:19.825Z,1016
2018-03-14T03:25:19.857Z,1015.99
2018-03-14T03:26:19.845Z,1016
2018-03-14T03:27:19.830Z,1016.04
2018-03-14T03:28:19.845Z,1016.03
2018-03-14T03:29:19.833Z,1016.01
2018-03-14T03:30:19.869Z,1016.02
2018-03-14T03:31:19.852Z,1016.02
2018-03-14T03:32:19.871Z,1015.98
2018-03-14T03:33:19.858Z,1016.03
2018-03-14T03:34:19.840Z,1016
2018-03-14T03:35:19.854Z,1015.98
2018-03-14T03:36:19.833Z,1016
2018-03-14T03:37:19.839Z,1015.98
2018-03-14T03:38:19.826Z,1016.01
2018-03-14T03:39:19.855Z,1016.03
2018-03-14T03:40:19.843Z,1016.02
2018-03-14T03:41:19.820Z,1016.05
2018-03-14T03:42:19.846Z,1016.06
2018-03-14T03:43:19.835Z,1016.04
2018-03-14T03:44:19.860Z,1016.03
2018-03-14T03:45:19.813Z,1016.07
2018-03-14T03:46:19.846Z,1016.06
2018-03-14T03:47:19.850Z,1016.06
2018-03-14T03:48:19.856Z,1016.09
2018-03-14T03:49:19.877Z,1016.06
2018-03-14T03:50:19.834Z,1016.11
2018-03-14T03:51:19.861Z,1016.14
2018-03-14T03:52:19.835Z,1016.14
2018-03-14T03:53:19.809Z,1016.16
2018-03-14T03:54:19.858Z,1016.16
2018-03-14T03:55:19.837Z,1016.16
2018-03-14T03:56:19.819Z,1016.21
2018-03-14T03:57:19.865Z,1016.17
2018-03-14T03:58:19.831Z,1016.18
2018-03-14T03:59:19.844Z,1016.16
2018-03-14T04:00:19.838Z,1016.19
2018-03-14T04:01:19.830Z,1016.19
2018-03-14T04:02:19.840Z,1016.16
2018-03-14T04:03:19.804Z,1016.16
2018-03-14T04:04:19.845Z,1016.11
2018-03-14T04:05:19.836Z,1016.15
2018-03-14T04:06:19.871Z,1016.1
2018-03-14T04:07:19.830Z,1016.08
2018-03-14T04:08:19.845Z,1016.09
2018-03-14T04:09:19.863Z,1016.1
2018-03-14T04:10:19.824Z,1016.09
2018-03-14T04:11:19.812Z,1016.04
2018-03-14T04:12:19.830Z,1016.05
2018-03-14T04:13:19.815Z,1016.09
2018-03-14T04:14:19.842Z,1016.02
2018-03-14T04:15:19.812Z,1016.04
2018-03-14T04:16:19.825Z,1016.07
2018-03-14T04:17:19.813Z,1015.99
2018-03-14T04:18:19.832Z,1016
2018-03-14T04:19:20.120Z,1016.02
2018-03-14T04:20:19.799Z,1015.98
2018-03-14T04:21:19.809Z,1015.97
2018-03-14T04:22:19.821Z,1016
2018-03-14T04:23:19.828Z,1015.96
2018-03-14T04:24:19.837Z,1015.96
2018-03-14T04:25:19.813Z,1015.96
2018-03-14T04:26:19.826Z,1015.93
2018-03-14T04:27:19.801Z,1015.97
2018-03-14T04:28:19.825Z,1015.93
2018-03-14T04:29:19.805Z,1015.95
2018-03-14T04:30:19.825Z,1015.97
2018-03-14T04:31:19.855Z,1015.96
2018-03-14T04:32:19.838Z,1015.98
2018-03-14T04:33:19.863Z,1015.99
2018-03-14T04:34:19.798Z,1015.99
2018-03-14T04:35:19.820Z,1015.95
2018-03-14T04:36:19.859Z,1015.98
2018-03-14T04:37:19.865Z,1015.96
2018-03-14T04:38:19.821Z,1016
2018-03-14T04:39:19.830Z,1016
2018-03-14T04:40:19.817Z,1015.96
2018-03-14T04:41:19.832Z,1016
2018-03-14T04:42:19.866Z,1016
2018-03-14T04:43:19.814Z,1016.01
2018-03-14T04:44:19.833Z,1015.96
2018-03-14T04:45:19.826Z,1016
2018-03-14T04:46:19.814Z,1016
2018-03-14T04:47:19.853Z,1016.03
2018-03-14T04:48:19.829Z,1015.97
2018-03-14T04:49:19.840Z,1016
2018-03-14T04:50:19.831Z,1016
2018-03-14T04:51:19.801Z,1015.99
2018-03-14T04:52:20.052Z,1015.97
2018-03-14T04:53:19.804Z,1016.01
2018-03-14T04:54:19.810Z,1016.03
2018-03-14T04:55:19.811Z,1016.04
2018-03-14T04:56:19.918Z,1016.04
2018-03-14T04:57:19.945Z,1016.06
2018-03-14T04:58:19.814Z,1016.04
2018-03-14T04:59:19.818Z,1016
2018-03-14T05:00:19.836Z,1016
2018-03-14T05:01:19.811Z,1016.01
2018-03-14T05:02:19.977Z,1016.01
2018-03-14T05:03:19.851Z,1016.02
2018-03-14T05:04:19.810Z,1015.99
2018-03-14T05:05:19.811Z,1015.95
2018-03-14T05:06:19.825Z,1015.92
2018-03-14T05:07:19.846Z,1015.9
2018-03-14T05:08:19.786Z,1015.88
2018-03-14T05:09:19.853Z,1015.91
2018-03-14T05:10:19.820Z,1015.94
2018-03-14T05:11:19.816Z,1015.91
2018-03-14T05:12:19.829Z,1015.91
2018-03-14T05:13:19.816Z,1015.94
2018-03-14T05:14:19.852Z,1015.89
2018-03-14T05:15:19.839Z,1015.89
2018-03-14T05:16:19.797Z,1015.91
2018-03-14T05:17:19.764Z,1015.89
2018-03-14T05:18:19.835Z,1015.85
2018-03-14T05:19:19.841Z,1015.87
2018-03-14T05:20:19.792Z,1015.86
2018-03-14T05:21:19.806Z,1015.83
2018-03-14T05:22:19.834Z,1015.84
2018-03-14T05:23:19.898Z,1015.88
2018-03-14T05:24:20.049Z,1015.89
2018-03-14T05:25:19.802Z,1015.92
2018-03-14T05:26:19.814Z,1015.93
2018-03-14T05:27:19.809Z,1015.95
2018-03-14T05:28:19.827Z,1015.97
2018-03-14T05:29:19.845Z,1015.99
2018-03-14T05:30:19.802Z,1015.95
2018-03-14T05:31:19.804Z,1015.93
2018-03-14T05:32:19.811Z,1015.95
2018-03-14T05:33:19.813Z,1015.95
2018-03-14T05:34:19.809Z,1015.94
2018-03-14T05:35:19.814Z,1015.96
2018-03-14T05:36:19.783Z,1015.93
2018-03-14T05:37:19.799Z,1015.94
2018-03-14T05:38:19.819Z,1015.94
2018-03-14T05:39:19.809Z,1015.98
2018-03-14T05:40:19.813Z,1016
2018-03-14T05:41:19.815Z,1016.01
2018-03-14T05:42:19.807Z,1016.01
2018-03-14T05:43:19.798Z,1015.98
2018-03-14T05:44:19.789Z,1016.01
2018-03-14T05:45:19.837Z,1016.01
2018-03-14T05:46:19.804Z,1015.98
2018-03-14T05:47:19.813Z,1015.97
2018-03-14T05:48:19.806Z,1015.97
2018-03-14T05:49:19.802Z,1015.97
2018-03-14T05:50:19.807Z,1015.97
2018-03-14T05:51:19.800Z,1015.98
2018-03-14T05:52:19.793Z,1015.97
2018-03-14T05:53:19.786Z,1015.98
2018-03-14T05:54:19.782Z,1015.95
2018-03-14T05:55:20.038Z,1015.92
2018-03-14T05:56:19.810Z,1015.93
2018-03-14T05:57:19.790Z,1015.91
2018-03-14T05:58:19.810Z,1015.97
2018-03-14T05:59:19.767Z,1015.98
2018-03-14T06:00:19.831Z,1015.98
2018-03-14T06:01:19.802Z,1015.96
2018-03-14T06:02:19.782Z,1015.96
2018-03-14T06:03:19.776Z,1016.01
2018-03-14T06:04:19.800Z,1015.96
2018-03-14T06:05:19.928Z,1015.96
2018-03-14T06:06:19.782Z,1015.95
2018-03-14T06:07:19.794Z,1015.93
2018-03-14T06:08:19.823Z,1015.94
2018-03-14T06:09:19.808Z,1015.93
2018-03-14T06:10:19.882Z,1015.92
2018-03-14T06:11:19.777Z,1015.94
2018-03-14T06:12:19.801Z,1015.92
2018-03-14T06:13:19.785Z,1015.92
2018-03-14T06:14:19.805Z,1015.94
2018-03-14T06:15:19.828Z,1015.94
2018-03-14T06:16:19.867Z,1015.93
2018-03-14T06:17:19.768Z,1015.94
2018-03-14T06:18:19.799Z,1015.95
2018-03-14T06:19:19.782Z,1015.92
2018-03-14T06:20:19.812Z,1015.95
2018-03-14T06:21:19.780Z,1015.92
2018-03-14T06:22:19.800Z,1015.94
2018-03-14T06:23:19.765Z,1015.93
2018-03-14T06:24:19.794Z,1015.93
2018-03-14T06:25:19.771Z,1015.95
2018-03-14T06:26:19.791Z,1015.97
2018-03-14T06:27:19.769Z,1015.98
2018-03-14T06:28:19.784Z,1015.96
2018-03-14T06:29:19.796Z,1015.97
2018-03-14T06:30:19.802Z,1016
2018-03-14T06:31:19.789Z,1015.99
2018-03-14T06:32:19.786Z,1016.03
2018-03-14T06:33:19.766Z,1016.07
2018-03-14T06:34:19.780Z,1016.06
2018-03-14T06:35:19.815Z,1016.06
2018-03-14T06:36:19.792Z,1016.1
2018-03-14T06:37:19.773Z,1016.1
2018-03-14T06:38:19.787Z,1016.12
2018-03-14T06:39:19.779Z,1016.07
2018-03-14T06:40:19.773Z,1016.12
2018-03-14T06:41:19.765Z,1016.1
2018-03-14T06:42:19.785Z,1016.07
2018-03-14T06:43:19.785Z,1016.07
2018-03-14T06:44:19.766Z,1016.08
2018-03-14T06:45:19.772Z,1016.12
2018-03-14T06:46:19.786Z,1016.05
2018-03-14T06:47:19.784Z,1016.09
2018-03-14T06:48:19.757Z,1016.09
2018-03-14T06:49:19.769Z,1016.16
2018-03-14T06:50:19.799Z,1016.15
2018-03-14T06:51:19.790Z,1016.05
2018-03-14T06:52:19.803Z,1016.08
2018-03-14T06:53:19.780Z,1016.11
2018-03-14T06:54:19.785Z,1016.12
2018-03-14T06:55:19.790Z,1016.12
2018-03-14T06:56:19.792Z,1016.15
2018-03-14T06:57:19.771Z,1016.16
2018-03-14T06:58:19.802Z,1016.2
2018-03-14T06:59:19.756Z,1016.2
2018-03-14T07:00:19.789Z,1016.19
2018-03-14T07:01:19.777Z,1016.17
2018-03-14T07:02:19.781Z,1016.17
2018-03-14T07:03:19.782Z,1016.21
2018-03-14T07:04:19.771Z,1016.16
2018-03-14T07:05:19.756Z,1016.2
2018-03-14T07:06:19.786Z,1016.21
2018-03-14T07:07:19.806Z,1016.22
2018-03-14T07:08:19.757Z,1016.25
2018-03-14T07:09:19.958Z,1016.24
2018-03-14T07:10:19.769Z,1016.23
2018-03-14T07:11:19.796Z,1016.25
2018-03-14T07:12:19.777Z,1016.31
2018-03-14T07:13:19.766Z,1016.27
2018-03-14T07:14:19.808Z,1016.26
2018-03-14T07:15:19.784Z,1016.27
2018-03-14T07:16:19.759Z,1016.19
2018-03-14T07:17:19.777Z,1016.23
2018-03-14T07:18:19.771Z,1016.27
2018-03-14T07:19:19.800Z,1016.22
2018-03-14T07:20:19.749Z,1016.22
2018-03-14T07:21:19.776Z,1016.24
2018-03-14T07:22:19.765Z,1016.24
2018-03-14T07:23:19.772Z,1016.27
2018-03-14T07:24:19.694Z,1016.32
2018-03-14T07:25:19.872Z,1016.28
2018-03-14T07:26:19.749Z,1016.29
2018-03-14T07:27:19.748Z,1016.29
2018-03-14T07:28:19.755Z,1016.29
2018-03-14T07:29:19.751Z,1016.31
2018-03-14T07:30:19.749Z,1016.27
2018-03-14T07:31:19.766Z,1016.32
2018-03-14T07:32:19.785Z,1016.29
2018-03-14T07:33:19.762Z,1016.29
2018-03-14T07:34:19.762Z,1016.3
2018-03-14T07:35:19.750Z,1016.33
2018-03-14T07:36:19.805Z,1016.31
2018-03-14T07:37:19.758Z,1016.33
2018-03-14T07:38:19.768Z,1016.34
2018-03-14T07:39:19.746Z,1016.35
2018-03-14T07:40:19.728Z,1016.4
2018-03-14T07:41:19.754Z,1016.35
2018-03-14T07:42:19.732Z,1016.36
2018-03-14T07:43:19.791Z,1016.32
2018-03-14T07:44:19.748Z,1016.38
2018-03-14T07:45:19.754Z,1016.39
2018-03-14T07:46:19.760Z,1016.39
2018-03-14T07:47:19.742Z,1016.33
2018-03-14T07:48:19.758Z,1016.35
2018-03-14T07:49:19.763Z,1016.33
2018-03-14T07:50:19.752Z,1016.35
2018-03-14T07:51:19.773Z,1016.34
2018-03-14T07:52:19.757Z,1016.34
2018-03-14T07:53:19.886Z,1016.38
2018-03-14T07:54:19.751Z,1016.38
2018-03-14T07:55:19.754Z,1016.38
2018-03-14T07:56:19.732Z,1016.37
2018-03-14T07:57:19.733Z,1016.36
2018-03-14T07:58:19.800Z,1016.37
2018-03-14T07:59:19.753Z,1016.39
2018-03-14T08:00:19.736Z,1016.37
2018-03-14T08:01:19.762Z,1016.32
2018-03-14T08:02:19.753Z,1016.35
2018-03-14T08:03:19.739Z,1016.35
2018-03-14T08:04:19.773Z,1016.35
2018-03-14T08:05:19.737Z,1016.3
2018-03-14T08:06:19.770Z,1016.32
2018-03-14T08:07:19.782Z,1016.32
2018-03-14T08:08:19.736Z,1016.34
2018-03-14T08:09:19.750Z,1016.38
2018-03-14T08:10:19.755Z,1016.37
2018-03-14T08:11:19.760Z,1016.36
2018-03-14T08:12:19.757Z,1016.34
2018-03-14T08:13:19.809Z,1016.35
2018-03-14T08:14:19.732Z,1016.39
2018-03-14T08:15:19.732Z,1016.39
2018-03-14T08:16:19.748Z,1016.37
2018-03-14T08:17:19.741Z,1016.37
2018-03-14T08:18:19.755Z,1016.34
2018-03-14T08:19:19.756Z,1016.35
2018-03-14T08:20:19.885Z,1016.32
2018-03-14T08:21:19.814Z,1016.33
2018-03-14T08:22:19.755Z,1016.28
2018-03-14T08:23:19.796Z,1016.3
2018-03-14T08:24:19.763Z,1016.31
2018-03-14T08:25:19.752Z,1016.32
2018-03-14T08:26:19.732Z,1016.34
2018-03-14T08:27:19.753Z,1016.38
2018-03-14T08:28:19.784Z,1016.35
2018-03-14T08:29:19.746Z,1016.33
2018-03-14T08:30:19.755Z,1016.37
2018-03-14T08:31:19.751Z,1016.34
2018-03-14T08:32:19.751Z,1016.36
2018-03-14T08:33:19.732Z,1016.33
2018-03-14T08:34:19.803Z,1016.38
2018-03-14T08:35:19.755Z,1016.37
2018-03-14T08:36:19.726Z,1016.36
2018-03-14T08:37:19.755Z,1016.41
2018-03-14T08:38:19.754Z,1016.42
2018-03-14T08:39:19.726Z,1016.42
2018-03-14T08:40:19.748Z,1016.39
2018-03-14T08:41:19.717Z,1016.38
2018-03-14T08:42:19.731Z,1016.36
2018-03-14T08:43:19.746Z,1016.33
2018-03-14T08:44:19.758Z,1016.31
2018-03-14T08:45:19.750Z,1016.3
2018-03-14T08:46:19.737Z,1016.32
2018-03-14T08:47:19.719Z,1016.28
2018-03-14T08:48:19.747Z,1016.28
2018-03-14T08:49:19.770Z,1016.29
2018-03-14T08:50:19.831Z,1016.32
2018-03-14T08:51:19.744Z,1016.3
2018-03-14T08:52:19.726Z,1016.33
2018-03-14T08:53:19.719Z,1016.29
2018-03-14T08:54:19.893Z,1016.37
2018-03-14T08:55:19.735Z,1016.34
2018-03-14T08:56:19.729Z,1016.33
2018-03-14T08:57:19.746Z,1016.29
2018-03-14T08:58:19.743Z,1016.31
2018-03-14T08:59:19.957Z,1016.28
2018-03-14T09:00:19.712Z,1016.3
2018-03-14T09:01:19.738Z,1016.3
2018-03-14T09:02:19.712Z,1016.29
2018-03-14T09:03:19.743Z,1016.33
2018-03-14T09:04:19.756Z,1016.3
2018-03-14T09:05:19.746Z,1016.32
2018-03-14T09:06:19.733Z,1016.32
2018-03-14T09:07:19.811Z,1016.34
2018-03-14T09:08:19.743Z,1016.31
2018-03-14T09:09:19.778Z,1016.26
2018-03-14T09:10:19.733Z,1016.3
2018-03-14T09:11:19.722Z,1016.28
2018-03-14T09:12:19.716Z,1016.25
2018-03-14T09:13:19.724Z,1016.23
2018-03-14T09:14:19.861Z,1016.21
2018-03-14T09:15:19.721Z,1016.19
2018-03-14T09:16:19.741Z,1016.21
2018-03-14T09:17:19.733Z,1016.25
2018-03-14T09:18:19.704Z,1016.26
2018-03-14T09:19:19.966Z,1016.27
2018-03-14T09:20:19.708Z,1016.26
2018-03-14T09:21:19.841Z,1016.2
2018-03-14T09:22:19.726Z,1016.25
2018-03-14T09:23:19.790Z,1016.2
2018-03-14T09:24:19.743Z,1016.15
2018-03-14T09:25:19.823Z,1016.15
2018-03-14T09:26:19.804Z,1016.09
2018-03-14T09:27:19.750Z,1016.15
2018-03-14T09:28:19.718Z,1016.08
2018-03-14T09:29:19.734Z,1016.12
2018-03-14T09:30:19.722Z,1016.15
2018-03-14T09:31:19.724Z,1016.15
2018-03-14T09:32:19.705Z,1016.12
2018-03-14T09:33:19.906Z,1016.12
2018-03-14T09:34:19.741Z,1016.12
2018-03-14T09:35:19.722Z,1016.13
2018-03-14T09:36:19.732Z,1016.1
2018-03-14T09:37:19.729Z,1016.11
2018-03-14T09:38:19.727Z,1016.12
2018-03-14T09:39:19.742Z,1016.08
2018-03-14T09:40:19.724Z,1016.12
2018-03-14T09:41:19.711Z,1016.12
2018-03-14T09:42:19.742Z,1016.11
2018-03-14T09:43:19.712Z,1016.12
2018-03-14T09:44:19.752Z,1016.1
2018-03-14T09:45:19.882Z,1016.14
2018-03-14T09:46:19.732Z,1016.12
2018-03-14T09:47:19.747Z,1016.15
2018-03-14T09:48:19.710Z,1016.14
2018-03-14T09:49:19.730Z,1016.14
2018-03-14T09:50:19.716Z,1016.14
2018-03-14T09:51:19.711Z,1016.13
2018-03-14T09:52:19.735Z,1016.08
2018-03-14T09:53:19.698Z,1016.07
2018-03-14T09:54:19.695Z,1016.07
2018-03-14T09:55:19.743Z,1016.04
2018-03-14T09:56:19.737Z,1016.05
2018-03-14T09:57:19.703Z,1016.01
2018-03-14T09:58:19.718Z,1016
2018-03-14T09:59:19.752Z,1015.97
2018-03-14T10:00:19.759Z,1015.97
2018-03-14T10:01:19.761Z,1016.01
2018-03-14T10:02:19.766Z,1016.03
2018-03-14T10:03:19.703Z,1016.05
2018-03-14T10:04:19.711Z,1015.99
2018-03-14T10:05:19.731Z,1015.93
2018-03-14T10:06:19.805Z,1015.93
2018-03-14T10:07:19.730Z,1015.95
2018-03-14T10:08:19.708Z,1015.94
2018-03-14T10:09:19.697Z,1015.89
2018-03-14T10:10:19.708Z,1015.89
2018-03-14T10:11:19.729Z,1015.92
2018-03-14T10:12:19.770Z,1015.89
2018-03-14T10:13:19.715Z,1015.91
2018-03-14T10:14:19.699Z,1015.9
2018-03-14T10:15:19.709Z,1015.84
2018-03-14T10:16:19.724Z,1015.9
2018-03-14T10:17:19.718Z,1015.86
2018-03-14T10:18:19.697Z,1015.85
2018-03-14T10:19:19.779Z,1015.88
2018-03-14T10:20:19.718Z,1015.89
2018-03-14T10:21:19.725Z,1015.9
2018-03-14T10:22:19.865Z,1015.91
2018-03-14T10:23:19.699Z,1015.94
2018-03-14T10:24:19.697Z,1015.9
2018-03-14T10:25:19.695Z,1015.93
2018-03-14T10:26:19.724Z,1015.92
2018-03-14T10:27:19.718Z,1015.86
2018-03-14T10:28:19.697Z,1015.85
2018-03-14T10:29:19.711Z,1015.84
2018-03-14T10:30:19.713Z,1015.82
2018-03-14T10:31:19.712Z,1015.83
2018-03-14T10:32:19.721Z,1015.82
2018-03-14T10:33:19.813Z,1015.78
2018-03-14T10:34:19.722Z,1015.8
2018-03-14T10:35:19.868Z,1015.81
2018-03-14T10:36:19.731Z,1015.76
2018-03-14T10:37:19.737Z,1015.78
2018-03-14T10:38:19.976Z,1015.78
2018-03-14T10:39:19.716Z,1015.79
2018-03-14T10:40:19.702Z,1015.82
2018-03-14T10:41:19.700Z,1015.82
2018-03-14T10:42:19.702Z,1015.77
2018-03-14T10:43:19.732Z,1015.77
2018-03-14T10:44:19.689Z,1015.75
2018-03-14T10:45:19.715Z,1015.73
2018-03-14T10:46:19.698Z,1015.72
2018-03-14T10:47:19.699Z,1015.72
2018-03-14T10:48:19.738Z,1015.69
2018-03-14T10:49:19.713Z,1015.71
2018-03-14T10:50:19.696Z,1015.69
2018-03-14T10:51:19.683Z,1015.69
2018-03-14T10:52:19.705Z,1015.65
2018-03-14T10:53:19.818Z,1015.66
2018-03-14T10:54:19.696Z,1015.68
2018-03-14T10:55:19.709Z,1015.67
2018-03-14T10:56:19.679Z,1015.63
2018-03-14T10:57:19.713Z,1015.69
2018-03-14T10:58:19.728Z,1015.65
2018-03-14T10:59:19.703Z,1015.71
2018-03-14T11:00:19.687Z,1015.66
2018-03-14T11:01:19.693Z,1015.66
2018-03-14T11:02:19.696Z,1015.68
2018-03-14T11:03:19.707Z,1015.65
2018-03-14T11:04:19.717Z,1015.67
2018-03-14T11:05:19.688Z,1015.65
2018-03-14T11:06:19.711Z,1015.62
2018-03-14T11:07:19.707Z,1015.64
2018-03-14T11:08:19.742Z,1015.57
2018-03-14T11:09:19.701Z,1015.57
2018-03-14T11:10:19.729Z,1015.54
2018-03-14T11:11:19.667Z,1015.56
2018-03-14T11:12:19.674Z,1015.54
2018-03-14T11:13:19.684Z,1015.54
2018-03-14T11:14:19.709Z,1015.55
2018-03-14T11:15:19.723Z,1015.48
2018-03-14T11:16:19.691Z,1015.49
2018-03-14T11:17:19.681Z,1015.47
2018-03-14T11:18:19.704Z,1015.49
2018-03-14T11:19:19.714Z,1015.39
2018-03-14T11:20:19.976Z,1015.46
2018-03-14T11:21:19.694Z,1015.48
2018-03-14T11:22:19.690Z,1015.46
2018-03-14T11:23:19.671Z,1015.49
2018-03-14T11:24:19.694Z,1015.44
2018-03-14T11:25:19.704Z,1015.45
2018-03-14T11:26:19.795Z,1015.44
2018-03-14T11:27:19.800Z,1015.45
2018-03-14T11:28:19.696Z,1015.45
2018-03-14T11:29:19.695Z,1015.44
2018-03-14T11:30:19.743Z,1015.37
2018-03-14T11:31:19.678Z,1015.41
2018-03-14T11:32:19.674Z,1015.44
2018-03-14T11:33:19.726Z,1015.35
2018-03-14T11:34:19.694Z,1015.38
2018-03-14T11:35:19.705Z,1015.39
2018-03-14T11:36:19.678Z,1015.4
2018-03-14T11:37:19.696Z,1015.4
2018-03-14T11:38:19.671Z,1015.41
2018-03-14T11:39:19.692Z,1015.4
2018-03-14T11:40:19.710Z,1015.37
2018-03-14T11:41:19.686Z,1015.38
2018-03-14T11:42:19.857Z,1015.36
2018-03-14T11:43:19.711Z,1015.33
2018-03-14T11:44:19.692Z,1015.32
2018-03-14T11:45:19.663Z,1015.31
2018-03-14T11:46:19.682Z,1015.29
2018-03-14T11:47:19.700Z,1015.28
2018-03-14T11:48:19.701Z,1015.28
2018-03-14T11:49:19.684Z,1015.29
2018-03-14T11:50:19.668Z,1015.26
2018-03-14T11:51:19.672Z,1015.24
2018-03-14T11:52:19.719Z,1015.25
2018-03-14T11:53:19.663Z,1015.2
2018-03-14T11:54:19.701Z,1015.22
2018-03-14T11:55:19.680Z,1015.17
2018-03-14T11:56:19.686Z,1015.14
2018-03-14T11:57:19.834Z,1015.13
2018-03-14T11:58:19.682Z,1015.07
2018-03-14T11:59:19.717Z,1015.07
2018-03-14T12:00:19.691Z,1015.06
2018-03-14T12:01:19.691Z,1015.05
2018-03-14T12:02:19.686Z,1015
2018-03-14T12:03:19.691Z,1015
2018-03-14T12:04:19.683Z,1014.99
2018-03-14T12:05:19.666Z,1014.97
2018-03-14T12:06:19.657Z,1014.98
2018-03-14T12:07:19.724Z,1014.95
2018-03-14T12:08:19.694Z,1014.92
2018-03-14T12:09:19.660Z,1014.94